LTU694 EDDF-CYYZ
Flight info
| Callsign | LTU694 |
|---|---|
| Flight time | N/A |
| Altitude | 36000 |
| Route | OBOKA3M/25C OBOKA Z28 DIBIR DCT BUDIP DCT RAVLO Y70 OTBED DCT ABLUC DCT OZRAT DCT WETFI DCT DODIG DCT REVNU DCT PIKIL/M083F370 NATA JANJO/N0491F380 DCT ALKOB/N0493F400 DCT YBC DCT POLTY IMEBA9 |
| Aircraft | MD11/H-SDE1E2E3FGHIJ2J3J4J5M1RWXY/LB1D1 |
Departure
| Time | 2026-05-04 12:49 |
|---|---|
| Airport | Frankfurt Main Airport (EDDF) |
Arrival
| Time | N/A |
|---|---|
| Airport | Toronto Pearson International Airport (CYYZ) |
| Time | Latitude | Longitude | Altitude | Speed | Heading |
|---|---|---|---|---|---|
| 2026-05-04 12:00 | 50.04749 | 8.57453 | 367 ft | 0 kts | 46° |
| 2026-05-04 12:34 | 50.04739 | 8.57437 | 363 ft | 4 kts | 40° |
| 2026-05-04 12:34 | 50.04718 | 8.57414 | 369 ft | 4 kts | 20° |
| 2026-05-04 12:34 | 50.04695 | 8.57405 | 363 ft | 4 kts | 353° |
| 2026-05-04 12:34 | 50.04671 | 8.57416 | 368 ft | 4 kts | 326° |
| 2026-05-04 12:35 | 50.04655 | 8.57436 | 366 ft | 4 kts | 326° |
| 2026-05-04 12:35 | 50.04634 | 8.57452 | 366 ft | 4 kts | 358° |
| 2026-05-04 12:35 | 50.04613 | 8.57447 | 364 ft | 4 kts | 39° |
| 2026-05-04 12:35 | 50.04596 | 8.57418 | 369 ft | 4 kts | 60° |
| 2026-05-04 12:36 | 50.04584 | 8.57381 | 370 ft | 4 kts | 68° |
| 2026-05-04 12:36 | 50.04575 | 8.57344 | 370 ft | 2 kts | 69° |
| 2026-05-04 12:36 | 50.04574 | 8.57342 | 364 ft | 5 kts | 69° |
| 2026-05-04 12:42 | 50.04583 | 8.57376 | 367 ft | 8 kts | 70° |
| 2026-05-04 12:42 | 50.04600 | 8.57455 | 368 ft | 8 kts | 71° |
| 2026-05-04 12:42 | 50.04616 | 8.57521 | 365 ft | 6 kts | 69° |
| 2026-05-04 12:42 | 50.04632 | 8.57583 | 368 ft | 6 kts | 68° |
| 2026-05-04 12:43 | 50.04649 | 8.57653 | 369 ft | 8 kts | 69° |
| 2026-05-04 12:43 | 50.04676 | 8.57764 | 365 ft | 13 kts | 68° |
| 2026-05-04 12:43 | 50.04706 | 8.57900 | 367 ft | 11 kts | 83° |
| 2026-05-04 12:43 | 50.04683 | 8.57973 | 371 ft | 7 kts | 137° |
| 2026-05-04 12:44 | 50.04646 | 8.58000 | 366 ft | 5 kts | 161° |
| 2026-05-04 12:44 | 50.04608 | 8.58019 | 369 ft | 7 kts | 162° |
| 2026-05-04 12:44 | 50.04567 | 8.58045 | 369 ft | 3 kts | 141° |
| 2026-05-04 12:44 | 50.04563 | 8.58070 | 370 ft | 5 kts | 98° |
| 2026-05-04 12:45 | 50.04575 | 8.58165 | 373 ft | 13 kts | 72° |
| 2026-05-04 12:45 | 50.04614 | 8.58320 | 376 ft | 16 kts | 69° |
| 2026-05-04 12:45 | 50.04648 | 8.58468 | 376 ft | 11 kts | 71° |
| 2026-05-04 12:45 | 50.04638 | 8.58551 | 376 ft | 7 kts | 126° |
| 2026-05-04 12:46 | 50.04582 | 8.58601 | 377 ft | 13 kts | 156° |
| 2026-05-04 12:46 | 50.04511 | 8.58612 | 378 ft | 8 kts | 201° |
| 2026-05-04 12:46 | 50.04481 | 8.58559 | 378 ft | 5 kts | 239° |
| 2026-05-04 12:46 | 50.04472 | 8.58524 | 377 ft | 0 kts | 249° |
| 2026-05-04 12:48 | 50.04405 | 8.58235 | 376 ft | 72 kts | 251° |
| 2026-05-04 12:48 | 50.04127 | 8.57092 | 371 ft | 151 kts | 249° |
| 2026-05-04 12:48 | 50.03668 | 8.55343 | 639 ft | 184 kts | 248° |
| 2026-05-04 12:49 | 50.03186 | 8.53515 | 1470 ft | 181 kts | 247° |
| 2026-05-04 12:49 | 50.02667 | 8.51611 | 2129 ft | 197 kts | 241° |
| 2026-05-04 12:49 | 50.01791 | 8.50012 | 2954 ft | 199 kts | 212° |
| 2026-05-04 12:49 | 50.00522 | 8.49140 | 3818 ft | 199 kts | 200° |
| 2026-05-04 12:50 | 49.99191 | 8.48490 | 4618 ft | 205 kts | 196° |
| 2026-05-04 12:50 | 49.97808 | 8.47918 | 5390 ft | 206 kts | 195° |
| 2026-05-04 12:50 | 49.96395 | 8.47346 | 6018 ft | 216 kts | 196° |
| 2026-05-04 12:50 | 49.94905 | 8.46649 | 6239 ft | 236 kts | 198° |
| 2026-05-04 12:51 | 49.93280 | 8.45858 | 6570 ft | 248 kts | 199° |
| 2026-05-04 12:51 | 49.91747 | 8.44655 | 7253 ft | 249 kts | 219° |
| 2026-05-04 12:51 | 49.90594 | 8.42650 | 7973 ft | 252 kts | 235° |
| 2026-05-04 12:51 | 49.89649 | 8.40345 | 8663 ft | 255 kts | 238° |
| 2026-05-04 12:52 | 49.88844 | 8.37874 | 9312 ft | 261 kts | 252° |
| 2026-05-04 12:52 | 49.88592 | 8.34959 | 9563 ft | 284 kts | 270° |
| 2026-05-04 12:52 | 49.88699 | 8.31879 | 10200 ft | 292 kts | 272° |
| 2026-05-04 12:52 | 49.88928 | 8.28599 | 10338 ft | 319 kts | 279° |
| 2026-05-04 12:53 | 49.89689 | 8.25229 | 10489 ft | 346 kts | 296° |
| 2026-05-04 12:53 | 49.91013 | 8.21994 | 10967 ft | 359 kts | 303° |
| 2026-05-04 12:53 | 49.92512 | 8.18870 | 11763 ft | 363 kts | 304° |
| 2026-05-04 12:53 | 49.94173 | 8.15907 | 12558 ft | 367 kts | 312° |
| 2026-05-04 12:54 | 49.96035 | 8.13237 | 13291 ft | 372 kts | 316° |
| 2026-05-04 12:54 | 49.98017 | 8.10611 | 14002 ft | 376 kts | 317° |
| 2026-05-04 12:54 | 50.00032 | 8.07984 | 14666 ft | 380 kts | 317° |
| 2026-05-04 12:54 | 50.02067 | 8.05319 | 15342 ft | 384 kts | 317° |
| 2026-05-04 12:55 | 50.04115 | 8.02610 | 15998 ft | 389 kts | 316° |
| 2026-05-04 12:55 | 50.06179 | 7.99859 | 16607 ft | 393 kts | 316° |
| 2026-05-04 12:55 | 50.08255 | 7.97073 | 17227 ft | 396 kts | 316° |
| 2026-05-04 12:55 | 50.10351 | 7.94249 | 17849 ft | 400 kts | 316° |
| 2026-05-04 12:56 | 50.12466 | 7.91391 | 18443 ft | 404 kts | 316° |
| 2026-05-04 12:56 | 50.14597 | 7.88509 | 19032 ft | 407 kts | 316° |
| 2026-05-04 12:56 | 50.16743 | 7.85602 | 19630 ft | 410 kts | 316° |
| 2026-05-04 12:56 | 50.18907 | 7.82667 | 20188 ft | 414 kts | 316° |
| 2026-05-04 12:57 | 50.21085 | 7.79707 | 20737 ft | 417 kts | 316° |
| 2026-05-04 12:57 | 50.23278 | 7.76721 | 21272 ft | 420 kts | 316° |
| 2026-05-04 12:57 | 50.25602 | 7.73916 | 21757 ft | 426 kts | 324° |
| 2026-05-04 12:57 | 50.28215 | 7.71666 | 22259 ft | 432 kts | 331° |
| 2026-05-04 12:58 | 50.30967 | 7.69716 | 22769 ft | 437 kts | 333° |
| 2026-05-04 12:58 | 50.33783 | 7.67866 | 23256 ft | 440 kts | 334° |
| 2026-05-04 12:58 | 50.36620 | 7.66019 | 23748 ft | 443 kts | 334° |
| 2026-05-04 12:58 | 50.39471 | 7.64137 | 24207 ft | 446 kts | 333° |
| 2026-05-04 12:59 | 50.42332 | 7.62215 | 24671 ft | 449 kts | 333° |
| 2026-05-04 12:59 | 50.45208 | 7.60254 | 25109 ft | 452 kts | 333° |
| 2026-05-04 12:59 | 50.48099 | 7.58265 | 25551 ft | 455 kts | 332° |
| 2026-05-04 12:59 | 50.51005 | 7.56255 | 25947 ft | 458 kts | 332° |
| 2026-05-04 13:00 | 50.53930 | 7.54228 | 26372 ft | 461 kts | 332° |
| 2026-05-04 13:00 | 50.56804 | 7.51981 | 26772 ft | 460 kts | 326° |
| 2026-05-04 13:00 | 50.59555 | 7.49394 | 27156 ft | 461 kts | 323° |
| 2026-05-04 13:00 | 50.62248 | 7.46632 | 27538 ft | 463 kts | 322° |
| 2026-05-04 13:01 | 50.64931 | 7.43795 | 27935 ft | 466 kts | 321° |
| 2026-05-04 13:01 | 50.67626 | 7.40940 | 28311 ft | 468 kts | 321° |
| 2026-05-04 13:01 | 50.70344 | 7.38080 | 28676 ft | 471 kts | 321° |
| 2026-05-04 13:01 | 50.73061 | 7.35173 | 29007 ft | 472 kts | 318° |
| 2026-05-04 13:02 | 50.75476 | 7.31816 | 29326 ft | 466 kts | 308° |
| 2026-05-04 13:02 | 50.77509 | 7.27927 | 29640 ft | 463 kts | 301° |
| 2026-05-04 13:02 | 50.79360 | 7.23754 | 29983 ft | 464 kts | 299° |
| 2026-05-04 13:02 | 50.81144 | 7.19503 | 30347 ft | 465 kts | 298° |
| 2026-05-04 13:03 | 50.82933 | 7.15235 | 30693 ft | 467 kts | 298° |
| 2026-05-04 13:03 | 50.84749 | 7.10980 | 31126 ft | 466 kts | 299° |
| 2026-05-04 13:03 | 50.86586 | 7.06749 | 31556 ft | 465 kts | 299° |
| 2026-05-04 13:03 | 50.88426 | 7.02559 | 31981 ft | 464 kts | 299° |
| 2026-05-04 13:04 | 50.90272 | 6.98373 | 32377 ft | 462 kts | 299° |
| 2026-05-04 13:04 | 50.92112 | 6.94205 | 32751 ft | 461 kts | 299° |
| 2026-05-04 13:04 | 50.93948 | 6.90052 | 33112 ft | 460 kts | 299° |
| 2026-05-04 13:04 | 50.95780 | 6.85904 | 33457 ft | 459 kts | 299° |
| 2026-05-04 13:05 | 50.97607 | 6.81758 | 33790 ft | 458 kts | 299° |
| 2026-05-04 13:05 | 50.99425 | 6.77628 | 34125 ft | 456 kts | 299° |
| 2026-05-04 13:05 | 51.01236 | 6.73510 | 34411 ft | 455 kts | 299° |
| 2026-05-04 13:05 | 51.03047 | 6.69384 | 34687 ft | 455 kts | 299° |
| 2026-05-04 13:06 | 51.04241 | 6.66664 | 34859 ft | 455 kts | 299° |
| 2026-05-04 13:06 | 51.06053 | 6.62527 | 35104 ft | 455 kts | 299° |
| 2026-05-04 13:06 | 51.07855 | 6.58405 | 35340 ft | 455 kts | 299° |
| 2026-05-04 13:06 | 51.09653 | 6.54269 | 35574 ft | 454 kts | 299° |
| 2026-05-04 13:07 | 51.11449 | 6.50123 | 35783 ft | 455 kts | 299° |
| 2026-05-04 13:07 | 51.13243 | 6.45980 | 35946 ft | 456 kts | 299° |
| 2026-05-04 13:07 | 51.15051 | 6.41802 | 35983 ft | 460 kts | 299° |
| 2026-05-04 13:08 | 51.18683 | 6.33413 | 35987 ft | 458 kts | 299° |
| 2026-05-04 13:08 | 51.22286 | 6.25077 | 35985 ft | 457 kts | 299° |
| 2026-05-04 13:09 | 51.25876 | 6.16725 | 35988 ft | 456 kts | 299° |
| 2026-05-04 13:09 | 51.29408 | 6.08325 | 35991 ft | 455 kts | 297° |
| 2026-05-04 13:10 | 51.32841 | 5.99909 | 35988 ft | 455 kts | 297° |
| 2026-05-04 13:10 | 51.36304 | 5.91428 | 35985 ft | 457 kts | 300° |
| 2026-05-04 13:11 | 51.40432 | 5.83507 | 35984 ft | 464 kts | 307° |
| 2026-05-04 13:11 | 51.44888 | 5.76114 | 35981 ft | 465 kts | 308° |
| 2026-05-04 13:12 | 51.49412 | 5.68607 | 35976 ft | 464 kts | 308° |
| 2026-05-04 13:12 | 51.53816 | 5.61159 | 35969 ft | 462 kts | 308° |
| 2026-05-04 13:13 | 51.58237 | 5.53610 | 35970 ft | 465 kts | 307° |
| 2026-05-04 13:13 | 51.62664 | 5.46048 | 35973 ft | 464 kts | 307° |
| 2026-05-04 13:14 | 51.67080 | 5.38476 | 35970 ft | 464 kts | 307° |
| 2026-05-04 13:14 | 51.71497 | 5.30876 | 35983 ft | 464 kts | 307° |
| 2026-05-04 13:15 | 51.75904 | 5.23262 | 35981 ft | 465 kts | 307° |
| 2026-05-04 13:15 | 51.80312 | 5.15615 | 35978 ft | 464 kts | 307° |
| 2026-05-04 13:16 | 51.84721 | 5.07965 | 35987 ft | 465 kts | 307° |
| 2026-05-04 13:16 | 51.89156 | 5.00277 | 35984 ft | 469 kts | 308° |
| 2026-05-04 13:17 | 51.93562 | 4.92534 | 35988 ft | 464 kts | 307° |
| 2026-05-04 13:17 | 51.97886 | 4.84872 | 35996 ft | 468 kts | 307° |
| 2026-05-04 13:18 | 52.02283 | 4.77105 | 35993 ft | 467 kts | 308° |
| 2026-05-04 13:18 | 52.06666 | 4.69357 | 35987 ft | 464 kts | 308° |
| 2026-05-04 13:19 | 52.11044 | 4.61615 | 35995 ft | 466 kts | 307° |
| 2026-05-04 13:19 | 52.15391 | 4.53892 | 35984 ft | 465 kts | 307° |
| 2026-05-04 13:20 | 52.19760 | 4.46106 | 35995 ft | 466 kts | 307° |
| 2026-05-04 13:20 | 52.24130 | 4.38297 | 35998 ft | 466 kts | 307° |
| 2026-05-04 13:21 | 52.28497 | 4.30474 | 35999 ft | 466 kts | 307° |
| 2026-05-04 13:21 | 52.32711 | 4.22903 | 36000 ft | 466 kts | 307° |
| 2026-05-04 13:22 | 52.37066 | 4.15050 | 36005 ft | 466 kts | 307° |
| 2026-05-04 13:22 | 52.41417 | 4.07178 | 36013 ft | 466 kts | 307° |
| 2026-05-04 13:23 | 52.45767 | 3.99280 | 36017 ft | 467 kts | 307° |
| 2026-05-04 13:23 | 52.50107 | 3.91370 | 36018 ft | 467 kts | 307° |
| 2026-05-04 13:24 | 52.54423 | 3.83398 | 36017 ft | 467 kts | 307° |
| 2026-05-04 13:24 | 52.58749 | 3.75423 | 36017 ft | 467 kts | 307° |
| 2026-05-04 13:25 | 52.65239 | 3.63485 | 36023 ft | 466 kts | 308° |
| 2026-05-04 13:25 | 52.69575 | 3.55499 | 36027 ft | 468 kts | 308° |
| 2026-05-04 13:26 | 52.73891 | 3.47484 | 36034 ft | 467 kts | 308° |
| 2026-05-04 13:26 | 52.78173 | 3.39509 | 36036 ft | 467 kts | 308° |
| 2026-05-04 13:27 | 52.82488 | 3.31472 | 36035 ft | 467 kts | 308° |
| 2026-05-04 13:27 | 52.86790 | 3.23427 | 36037 ft | 467 kts | 308° |
| 2026-05-04 13:28 | 52.90901 | 3.15119 | 36035 ft | 463 kts | 299° |
| 2026-05-04 13:28 | 52.93414 | 3.05454 | 36046 ft | 455 kts | 281° |
| 2026-05-04 13:29 | 52.94612 | 2.95167 | 36040 ft | 456 kts | 277° |
| 2026-05-04 13:29 | 52.95748 | 2.84824 | 36046 ft | 456 kts | 279° |
| 2026-05-04 13:30 | 52.97024 | 2.74503 | 36043 ft | 457 kts | 279° |
| 2026-05-04 13:30 | 52.98358 | 2.64184 | 36039 ft | 457 kts | 280° |
| 2026-05-04 13:31 | 52.99690 | 2.53856 | 36049 ft | 458 kts | 280° |
| 2026-05-04 13:31 | 53.01011 | 2.43506 | 36041 ft | 459 kts | 280° |
| 2026-05-04 13:32 | 53.02319 | 2.33181 | 36040 ft | 459 kts | 280° |
| 2026-05-04 13:32 | 53.03623 | 2.22796 | 36047 ft | 459 kts | 280° |
| 2026-05-04 13:33 | 53.04910 | 2.12469 | 36040 ft | 460 kts | 279° |
| 2026-05-04 13:33 | 53.06167 | 2.02047 | 36039 ft | 460 kts | 279° |
| 2026-05-04 13:34 | 53.07428 | 1.91601 | 36050 ft | 462 kts | 280° |
| 2026-05-04 13:34 | 53.08704 | 1.81087 | 36052 ft | 465 kts | 280° |
| 2026-05-04 13:35 | 53.10617 | 1.65276 | 36043 ft | 465 kts | 280° |
| 2026-05-04 13:36 | 53.11883 | 1.54727 | 36040 ft | 465 kts | 280° |
| 2026-05-04 13:36 | 53.13138 | 1.44167 | 36043 ft | 465 kts | 280° |
| 2026-05-04 13:37 | 53.14386 | 1.33583 | 36039 ft | 466 kts | 280° |
| 2026-05-04 13:37 | 53.15624 | 1.22993 | 36048 ft | 466 kts | 280° |
| 2026-05-04 13:38 | 53.16853 | 1.12374 | 36049 ft | 467 kts | 279° |
| 2026-05-04 13:38 | 53.18076 | 1.01734 | 36054 ft | 468 kts | 280° |
| 2026-05-04 13:39 | 53.19291 | 0.91069 | 36053 ft | 468 kts | 279° |
| 2026-05-04 13:39 | 53.20490 | 0.80460 | 36053 ft | 469 kts | 279° |
| 2026-05-04 13:40 | 53.21664 | 0.69761 | 36058 ft | 469 kts | 279° |
| 2026-05-04 13:40 | 53.22807 | 0.59012 | 36050 ft | 471 kts | 279° |
| 2026-05-04 13:41 | 53.23970 | 0.48246 | 36052 ft | 472 kts | 280° |
| 2026-05-04 13:41 | 53.25142 | 0.37462 | 36054 ft | 472 kts | 280° |
| 2026-05-04 13:42 | 53.26886 | 0.21251 | 36055 ft | 473 kts | 280° |
| 2026-05-04 13:42 | 53.28044 | 0.10419 | 36067 ft | 474 kts | 280° |
| 2026-05-04 13:43 | 53.29261 | -0.00408 | 36072 ft | 474 kts | 282° |
| 2026-05-04 13:43 | 53.30662 | -0.11194 | 36073 ft | 476 kts | 282° |
| 2026-05-04 13:44 | 53.32108 | -0.22041 | 36071 ft | 479 kts | 283° |
| 2026-05-04 13:44 | 53.33541 | -0.32937 | 36071 ft | 479 kts | 283° |
| 2026-05-04 13:45 | 53.34957 | -0.43843 | 36077 ft | 479 kts | 283° |
| 2026-05-04 13:45 | 53.36359 | -0.54745 | 36071 ft | 479 kts | 283° |
| 2026-05-04 13:46 | 53.37743 | -0.65595 | 36075 ft | 480 kts | 283° |
| 2026-05-04 13:46 | 53.39128 | -0.76533 | 36064 ft | 480 kts | 283° |
| 2026-05-04 13:47 | 53.40494 | -0.87418 | 36068 ft | 479 kts | 282° |
| 2026-05-04 13:47 | 53.41859 | -0.98367 | 36051 ft | 480 kts | 282° |
| 2026-05-04 13:48 | 53.43215 | -1.09328 | 36036 ft | 479 kts | 282° |
| 2026-05-04 13:48 | 53.44553 | -1.20240 | 36035 ft | 480 kts | 282° |
| 2026-05-04 13:49 | 53.45888 | -1.31235 | 36027 ft | 480 kts | 282° |
| 2026-05-04 13:49 | 53.47165 | -1.42251 | 36020 ft | 480 kts | 282° |
| 2026-05-04 13:50 | 53.48446 | -1.53249 | 36028 ft | 480 kts | 282° |
| 2026-05-04 13:50 | 53.49747 | -1.64273 | 36027 ft | 481 kts | 282° |
| 2026-05-04 13:51 | 53.51040 | -1.75246 | 36036 ft | 481 kts | 282° |
| 2026-05-04 13:51 | 53.52330 | -1.86283 | 36046 ft | 481 kts | 282° |
| 2026-05-04 13:52 | 53.54242 | -2.02854 | 36051 ft | 481 kts | 282° |
| 2026-05-04 13:53 | 53.55497 | -2.13839 | 36063 ft | 482 kts | 282° |
| 2026-05-04 13:53 | 53.56755 | -2.24950 | 36062 ft | 482 kts | 282° |
| 2026-05-04 13:54 | 53.58616 | -2.41574 | 36072 ft | 481 kts | 282° |
| 2026-05-04 13:55 | 53.60445 | -2.58138 | 36074 ft | 481 kts | 282° |
| 2026-05-04 13:55 | 53.62189 | -2.74393 | 36073 ft | 482 kts | 281° |
| 2026-05-04 13:56 | 53.63340 | -2.85525 | 36071 ft | 482 kts | 281° |
| 2026-05-04 13:57 | 53.65090 | -3.02129 | 36072 ft | 481 kts | 281° |
| 2026-05-04 13:58 | 53.67426 | -3.24375 | 36073 ft | 482 kts | 281° |
| 2026-05-04 13:58 | 53.68960 | -3.39230 | 36074 ft | 482 kts | 281° |
| 2026-05-04 13:59 | 53.70097 | -3.50380 | 36071 ft | 482 kts | 281° |
| 2026-05-04 14:00 | 53.71786 | -3.67130 | 36077 ft | 483 kts | 281° |
| 2026-05-04 14:00 | 53.73446 | -3.83846 | 36071 ft | 483 kts | 281° |
| 2026-05-04 14:01 | 53.74546 | -3.95052 | 36072 ft | 483 kts | 281° |
| 2026-05-04 14:02 | 53.76151 | -4.11857 | 36071 ft | 483 kts | 281° |
| 2026-05-04 14:02 | 53.77168 | -4.23043 | 36071 ft | 483 kts | 281° |
| 2026-05-04 14:03 | 53.78213 | -4.34274 | 36071 ft | 483 kts | 281° |
| 2026-05-04 14:03 | 53.79257 | -4.45426 | 36070 ft | 483 kts | 281° |
| 2026-05-04 14:04 | 53.80392 | -4.62425 | 36076 ft | 485 kts | 275° |
| 2026-05-04 14:04 | 53.80735 | -4.73833 | 36080 ft | 485 kts | 274° |
| 2026-05-04 14:05 | 53.81238 | -4.90849 | 36082 ft | 485 kts | 274° |
| 2026-05-04 14:06 | 53.81592 | -5.02258 | 36081 ft | 485 kts | 274° |
| 2026-05-04 14:06 | 53.81944 | -5.13661 | 36084 ft | 485 kts | 274° |
| 2026-05-04 14:07 | 53.82287 | -5.25059 | 36082 ft | 485 kts | 274° |
| 2026-05-04 14:07 | 53.82619 | -5.36466 | 36083 ft | 485 kts | 274° |
| 2026-05-04 14:08 | 53.82959 | -5.47784 | 36082 ft | 483 kts | 277° |
| 2026-05-04 14:08 | 53.84067 | -5.58963 | 36091 ft | 481 kts | 285° |
| 2026-05-04 14:09 | 53.86446 | -5.75475 | 36091 ft | 480 kts | 285° |
| 2026-05-04 14:10 | 53.88747 | -5.92011 | 36097 ft | 480 kts | 285° |
| 2026-05-04 14:10 | 53.90226 | -6.03007 | 36098 ft | 480 kts | 285° |
| 2026-05-04 14:11 | 53.91701 | -6.14074 | 36102 ft | 480 kts | 285° |
| 2026-05-04 14:11 | 53.93884 | -6.30582 | 36100 ft | 480 kts | 284° |
| 2026-05-04 14:12 | 53.95336 | -6.41654 | 36091 ft | 480 kts | 284° |
| 2026-05-04 14:13 | 53.97645 | -6.58250 | 36100 ft | 481 kts | 287° |
| 2026-05-04 14:13 | 53.99339 | -6.69242 | 36098 ft | 481 kts | 287° |
| 2026-05-04 14:14 | 54.01046 | -6.80245 | 36103 ft | 481 kts | 287° |
| 2026-05-04 14:14 | 54.03549 | -6.96604 | 36094 ft | 473 kts | 287° |
| 2026-05-04 14:15 | 54.06810 | -7.18237 | 36089 ft | 474 kts | 286° |